Time;durP1;ratioP1;P1;durP2;ratioP2;P2;SDS_P1;SDS_P2;PMS_P1;PMS_P2;Temp;Humidity;BMP_temperature;BMP_pressure;BME280_temperature;BME280_humidity;BME280_pressure;Samples;Min_cycle;Max_cycle;Signal;HPM_P1;HPM_P2
2021/05/06 05:04:33;;;;;;;2.20;2.00;;;3.50;99.90;;;;;;4962784;28;20474;-70
2021/05/06 05:25:05;;;;;;;2.35;2.10;;;3.20;99.90;;;;;;4984516;28;20042;-69
2021/05/06 05:27:31;;;;;;;2.55;2.20;;;3.10;99.90;;;;;;4993725;28;20504;-67
2021/05/06 05:29:57;;;;;;;3.65;2.00;;;3.20;99.90;;;;;;4993249;28;20034;-67
2021/05/06 05:32:23;;;;;;;6.78;2.30;;;3.20;99.90;;;;;;5002050;28;20120;-66
2021/05/06 05:37:17;;;;;;;4.40;2.60;;;3.30;99.90;;;;;;5013380;28;20458;-69
2021/05/06 05:55:35;;;;;;;3.47;2.95;;;3.30;99.90;;;;;;5012958;28;20499;-68
2021/05/06 05:58:01;;;;;;;2.92;2.63;;;3.30;99.90;;;;;;5012321;28;20116;-68
2021/05/06 06:00:26;;;;;;;5.35;3.20;;;3.30;99.90;;;;;;5012401;28;20085;-68
2021/05/06 06:02:52;;;;;;;4.10;2.63;;;3.40;99.90;;;;;;4999376;28;20019;-68
2021/05/06 06:05:18;;;;;;;3.20;2.83;;;3.50;99.90;;;;;;4992891;28;20085;-67
2021/05/06 06:07:45;;;;;;;7.30;3.55;;;3.50;99.90;;;;;;4993025;28;20026;-70
2021/05/06 06:10:11;;;;;;;5.35;3.08;;;3.50;99.90;;;;;;4988894;28;20754;-72
2021/05/06 06:12:37;;;;;;;6.10;3.00;;;3.60;99.90;;;;;;4992796;28;20034;-67
2021/05/06 06:15:08;;;;;;;3.28;2.97;;;3.60;99.90;;;;;;4992535;28;20026;-68
2021/05/06 06:17:41;;;;;;;6.70;2.80;;;3.60;99.90;;;;;;4992750;28;20114;-68
2021/05/06 06:20:07;;;;;;;4.07;3.17;;;3.60;99.90;;;;;;4992778;28;20034;-68
2021/05/06 06:22:33;;;;;;;7.32;3.30;;;3.60;99.90;;;;;;4999209;28;20390;-66
2021/05/06 06:25:01;;;;;;;4.32;2.80;;;3.70;99.90;;;;;;4999667;28;20030;-64
2021/05/06 06:27:29;;;;;;;4.70;3.33;;;3.80;99.90;;;;;;5006410;28;20010;-68
2021/05/06 06:29:54;;;;;;;7.47;2.72;;;3.80;99.90;;;;;;4992575;28;20078;-67
2021/05/06 06:32:20;;;;;;;3.50;3.03;;;4.40;99.90;;;;;;4991924;28;20513;-68
2021/05/06 06:34:47;;;;;;;3.97;2.78;;;4.80;99.90;;;;;;4992374;28;20022;-70
2021/05/06 06:37:14;;;;;;;5.93;2.63;;;4.60;99.90;;;;;;4989746;28;20537;-68
2021/05/06 06:39:40;;;;;;;2.90;2.60;;;4.40;99.90;;;;;;4988961;28;20029;-69
2021/05/06 06:42:11;;;;;;;4.70;2.60;;;4.20;99.90;;;;;;4991391;28;20100;-69
2021/05/06 06:44:37;;;;;;;3.22;2.88;;;4.20;99.90;;;;;;4974354;28;20091;-68
2021/05/06 06:47:05;;;;;;;3.75;2.63;;;4.10;99.90;;;;;;4992164;28;20031;-68
2021/05/06 06:49:33;;;;;;;3.85;2.97;;;4.10;99.90;;;;;;4992224;28;20173;-68
2021/05/06 06:52:00;;;;;;;3.25;2.40;;;4.00;99.90;;;;;;4992135;28;20381;-68
2021/05/06 06:54:27;;;;;;;3.83;2.90;;;3.90;99.90;;;;;;4991935;28;20023;-68
2021/05/06 06:56:53;;;;;;;3.78;2.50;;;3.80;99.90;;;;;;4992107;28;20045;-70
2021/05/06 06:59:19;;;;;;;3.42;2.97;;;3.80;99.90;;;;;;4991501;28;20085;-72
2021/05/06 07:01:44;;;;;;;4.15;3.22;;;3.80;99.90;;;;;;4986476;28;20035;-69
2021/05/06 07:04:11;;;;;;;4.00;2.75;;;3.90;99.90;;;;;;4991993;28;20567;-70
2021/05/06 07:06:38;;;;;;;3.40;3.10;;;3.80;99.90;;;;;;4992141;28;20054;-69
2021/05/06 07:09:06;;;;;;;4.13;2.65;;;3.80;99.90;;;;;;4991802;28;20025;-69
2021/05/06 07:11:32;;;;;;;6.13;2.55;;;3.80;99.90;;;;;;4992357;28;20053;-70
2021/05/06 07:13:57;;;;;;;3.38;2.38;;;3.80;99.90;;;;;;4991884;28;20462;-70
2021/05/06 07:16:23;;;;;;;4.63;3.13;;;3.80;99.90;;;;;;4991957;28;20250;-69
2021/05/06 07:18:49;;;;;;;5.03;3.17;;;3.70;99.90;;;;;;4971895;28;20026;-69
2021/05/06 07:21:15;;;;;;;7.82;3.30;;;3.70;99.90;;;;;;4991873;28;20030;-69
2021/05/06 07:23:41;;;;;;;4.75;2.83;;;4.30;99.90;;;;;;4988451;28;20026;-69
2021/05/06 07:26:07;;;;;;;5.78;3.03;;;4.50;99.90;;;;;;4990485;28;20053;-70
2021/05/06 07:28:38;;;;;;;4.72;2.25;;;4.50;99.90;;;;;;4987463;28;20101;-67
2021/05/06 07:31:04;;;;;;;3.35;2.90;;;4.40;99.90;;;;;;4990483;28;20635;-66
2021/05/06 07:33:31;;;;;;;3.15;2.50;;;4.40;99.90;;;;;;4991209;28;20077;-66
2021/05/06 07:35:58;;;;;;;9.88;3.10;;;4.40;99.90;;;;;;4985664;28;20085;-66
2021/05/06 07:38:24;;;;;;;2.75;2.30;;;4.60;99.90;;;;;;4990875;28;20029;-67
2021/05/06 07:40:51;;;;;;;5.18;2.42;;;4.50;99.90;;;;;;4991578;28;20378;-67
2021/05/06 07:43:17;;;;;;;6.00;2.17;;;4.60;99.90;;;;;;4994021;28;20026;-67
2021/05/06 07:45:43;;;;;;;8.32;2.70;;;4.60;99.90;;;;;;4995405;28;20058;-66
2021/05/06 07:48:09;;;;;;;2.60;2.15;;;4.50;99.90;;;;;;4995261;28;20504;-66
2021/05/06 07:50:35;;;;;;;5.65;2.13;;;4.50;99.90;;;;;;4995356;28;20035;-67
2021/05/06 07:53:12;;;;;;;3.50;2.25;;;4.50;99.90;;;;;;4995092;28;20489;-70
2021/05/06 07:55:39;;;;;;;3.75;2.00;;;4.40;99.90;;;;;;4995155;28;20027;-70
2021/05/06 07:58:05;;;;;;;4.18;1.85;;;4.30;99.90;;;;;;4985268;28;20031;-73
2021/05/06 08:00:34;;;;;;;17.15;2.75;;;4.40;99.90;;;;;;4977737;28;20517;-66
2021/05/06 08:03:00;;;;;;;3.67;2.05;;;4.40;99.90;;;;;;4995178;28;20031;-66
2021/05/06 08:05:26;;;;;;;2.03;1.83;;;4.30;99.90;;;;;;4995258;28;20026;-64
2021/05/06 08:07:52;;;;;;;3.20;1.85;;;4.40;99.90;;;;;;4977274;28;20079;-66
2021/05/06 08:10:18;;;;;;;4.03;1.90;;;4.50;99.90;;;;;;4998362;28;20030;-68
2021/05/06 08:12:45;;;;;;;7.30;2.22;;;4.60;99.90;;;;;;5004833;28;20414;-68
2021/05/06 08:15:11;;;;;;;10.90;2.08;;;4.70;99.90;;;;;;4994811;28;20140;-68
2021/05/06 08:17:39;;;;;;;3.30;1.80;;;4.80;99.90;;;;;;4995357;28;20094;-69
2021/05/06 08:20:07;;;;;;;3.90;1.98;;;5.00;99.90;;;;;;4994821;28;20486;-74
2021/05/06 08:22:34;;;;;;;4.13;1.77;;;5.00;99.90;;;;;;5008444;28;20426;-73
2021/05/06 08:25:00;;;;;;;2.17;1.73;;;6.40;99.90;;;;;;4989719;28;20023;-75
2021/05/06 08:27:26;;;;;;;10.15;2.20;;;6.80;96.70;;;;;;4993516;28;20027;-74
2021/05/06 08:29:52;;;;;;;3.42;1.73;;;6.40;94.90;;;;;;4994418;28;20046;-74
2021/05/06 08:32:18;;;;;;;3.72;1.67;;;5.80;94.20;;;;;;4994708;28;20026;-74
2021/05/06 08:34:44;;;;;;;2.92;2.20;;;5.40;97.20;;;;;;4994587;28;20065;-74
2021/05/06 08:37:10;;;;;;;3.45;2.30;;;5.20;98.60;;;;;;4994804;28;20080;-74
2021/05/06 08:39:35;;;;;;;19.13;4.03;;;5.10;99.90;;;;;;4993763;28;20490;-74
2021/05/06 08:42:02;;;;;;;1.88;1.67;;;5.20;99.90;;;;;;4994336;28;20198;-74
2021/05/06 08:44:32;;;;;;;4.75;2.20;;;5.10;97.80;;;;;;4994189;28;20030;-74
2021/05/06 08:47:12;;;;;;;3.38;1.85;;;5.00;96.60;;;;;;4994132;28;20020;-74
2021/05/06 08:49:39;;;;;;;5.60;2.05;;;4.90;95.90;;;;;;4994122;28;20540;-75
2021/05/06 08:52:07;;;;;;;4.28;2.05;;;4.90;97.40;;;;;;4976605;28;20410;-75
2021/05/06 08:54:33;;;;;;;19.60;1.90;;;4.90;95.90;;;;;;4993484;28;20023;-75
2021/05/06 08:56:59;;;;;;;31.63;2.38;;;4.90;96.10;;;;;;4994210;28;20517;-75
2021/05/06 08:59:26;;;;;;;5.45;1.95;;;4.90;95.30;;;;;;4993832;28;20544;-74
2021/05/06 09:01:56;;;;;;;24.60;2.35;;;4.90;95.50;;;;;;4993974;28;20445;-75
2021/05/06 09:04:22;;;;;;;1.83;1.73;;;4.90;94.30;;;;;;4994178;28;20378;-75
2021/05/06 09:06:59;;;;;;;3.00;1.90;;;4.90;94.20;;;;;;4976710;28;20026;-74
2021/05/06 09:09:27;;;;;;;2.10;1.70;;;4.90;93.20;;;;;;4994239;28;20359;-74
2021/05/06 09:12:01;;;;;;;2.17;1.98;;;4.90;92.60;;;;;;4994052;28;20026;-75
2021/05/06 09:14:41;;;;;;;2.15;1.48;;;4.70;93.00;;;;;;4976526;28;20096;-75
2021/05/06 09:17:26;;;;;;;7.45;2.22;;;4.80;94.20;;;;;;4993842;28;20382;-74
2021/05/06 09:20:05;;;;;;;11.93;2.20;;;5.00;93.40;;;;;;5006095;28;20547;-74
2021/05/06 09:22:42;;;;;;;4.15;2.08;;;5.00;91.50;;;;;;4980736;28;20109;-74
2021/05/06 09:25:37;;;;;;;44.53;3.05;;;4.90;92.40;;;;;;4993675;28;20478;-74
2021/05/06 09:28:07;;;;;;;2.60;1.77;;;5.00;91.50;;;;;;4983701;28;20018;-75
2021/05/06 09:30:35;;;;;;;2.83;1.52;;;5.00;92.00;;;;;;4993576;28;20394;-74
2021/05/06 09:33:05;;;;;;;11.77;1.80;;;5.10;89.50;;;;;;4993287;28;20026;-74
2021/05/06 09:35:43;;;;;;;2.60;1.60;;;5.10;85.00;;;;;;4993505;28;20130;-74
2021/05/06 09:38:23;;;;;;;4.90;2.10;;;5.00;87.50;;;;;;4993572;28;20033;-75
2021/05/06 09:40:48;;;;;;;4.72;1.80;;;5.00;89.00;;;;;;4993224;28;20026;-75
2021/05/06 09:43:41;;;;;;;4.00;2.10;;;5.10;88.40;;;;;;4993499;28;20170;-75
2021/05/06 09:46:37;;;;;;;6.15;2.00;;;5.10;84.10;;;;;;5011239;28;20022;-75
2021/05/06 09:49:09;;;;;;;5.60;1.98;;;5.00;84.30;;;;;;4998142;28;20027;-75
2021/05/06 09:51:39;;;;;;;4.97;1.88;;;5.00;81.50;;;;;;4993543;28;20034;-75
2021/05/06 09:54:06;;;;;;;;;;;5.00;81.80;;;;;;4993830;28;20026;-75
2021/05/06 09:56:32;;;;;;;42.90;3.72;;;5.00;76.70;;;;;;5012789;28;19905;-75
2021/05/06 09:58:58;;;;;;;3.60;1.60;;;5.10;78.30;;;;;;4999620;28;20053;-71
2021/05/06 10:01:44;;;;;;;19.58;2.28;;;5.20;81.60;;;;;;4984278;28;20034;-74
2021/05/06 10:04:24;;;;;;;4.45;2.30;;;6.00;78.90;;;;;;4986347;28;20109;-72
2021/05/06 10:07:22;;;;;;;8.55;2.08;;;5.80;77.40;;;;;;4987714;28;20130;-72
2021/05/06 10:09:59;;;;;;;100.65;6.32;;;5.80;74.10;;;;;;5006383;28;20073;-75
2021/05/06 10:12:28;;;;;;;3.50;1.80;;;5.60;73.90;;;;;;4963032;28;20422;-74
2021/05/06 10:14:54;;;;;;;2.63;1.88;;;5.60;73.30;;;;;;4992641;28;20065;-75
2021/05/06 10:17:21;;;;;;;6.60;2.05;;;5.70;73.30;;;;;;4992741;28;20031;-75
2021/05/06 10:19:47;;;;;;;2.65;1.83;;;5.80;72.50;;;;;;5011069;28;20080;-75
2021/05/06 10:22:16;;;;;;;5.07;2.17;;;5.80;71.30;;;;;;4994775;28;20026;-74
2021/05/06 10:24:43;;;;;;;27.88;2.30;;;6.00;72.40;;;;;;4974689;28;20034;-74
2021/05/06 10:27:19;;;;;;;7.95;2.58;;;5.90;71.90;;;;;;4992332;28;20022;-73
2021/05/06 10:29:46;;;;;;;55.72;3.22;;;5.80;70.30;;;;;;4992697;28;20041;-74
2021/05/06 10:32:15;;;;;;;7.43;2.38;;;5.50;70.30;;;;;;4990516;28;20034;-75
2021/05/06 10:34:43;;;;;;;6.00;2.10;;;5.40;71.70;;;;;;4992685;28;20441;-75
2021/05/06 10:37:09;;;;;;;3.63;1.80;;;5.30;70.90;;;;;;4992461;28;20030;-74
2021/05/06 10:39:45;;;;;;;11.70;2.15;;;5.20;70.80;;;;;;4992092;28;20440;-75
2021/05/06 10:42:26;;;;;;;4.55;2.03;;;5.10;71.50;;;;;;4992332;28;20477;-74
2021/05/06 10:45:02;;;;;;;5.85;1.98;;;5.10;71.70;;;;;;4991600;28;20550;-76
2021/05/06 10:47:43;;;;;;;3.45;2.10;;;5.00;72.00;;;;;;4991957;28;20509;-76
2021/05/06 10:50:16;;;;;;;5.40;1.70;;;5.00;71.70;;;;;;4990830;28;20411;-75
2021/05/06 10:52:45;;;;;;;43.03;3.28;;;5.00;70.30;;;;;;4992285;28;20076;-76
2021/05/06 10:55:12;;;;;;;4.88;1.48;;;4.90;68.90;;;;;;4992092;28;20026;-76
2021/05/06 10:57:39;;;;;;;14.65;2.30;;;4.90;68.30;;;;;;4992241;28;20030;-76
2021/05/06 11:00:25;;;;;;;5.82;2.60;;;5.00;68.70;;;;;;4979531;28;20462;-76
2021/05/06 11:02:54;;;;;;;12.20;2.47;;;5.00;67.20;;;;;;4992098;28;20129;-74
2021/05/06 11:05:27;;;;;;;4.85;1.55;;;5.00;67.00;;;;;;4991919;28;20085;-75
2021/05/06 11:08:05;;;;;;;2.30;1.60;;;5.10;66.90;;;;;;4991851;28;20031;-75
2021/05/06 11:10:47;;;;;;;17.35;2.83;;;5.10;65.10;;;;;;5005547;28;20429;-74
2021/05/06 11:13:13;;;;;;;20.73;2.65;;;5.00;65.30;;;;;;4988024;28;20037;-74
2021/05/06 11:15:39;;;;;;;12.48;3.47;;;4.90;65.80;;;;;;4997556;28;20479;-74
2021/05/06 11:18:08;;;;;;;27.48;2.28;;;4.90;66.20;;;;;;5002197;28;20026;-76
2021/05/06 11:20:40;;;;;;;10.18;2.00;;;5.00;65.60;;;;;;4996167;28;20014;-77
2021/05/06 11:23:18;;;;;;;5.28;1.90;;;5.00;65.60;;;;;;4995878;28;20478;-75
2021/05/06 11:25:52;;;;;;;2.20;1.77;;;4.90;64.80;;;;;;5009668;28;20022;-76
2021/05/06 11:28:17;;;;;;;20.13;2.28;;;4.80;65.40;;;;;;4996238;28;20056;-76
2021/05/06 11:30:43;;;;;;;37.13;3.55;;;4.80;64.40;;;;;;4995963;28;20544;-76
2021/05/06 11:33:21;;;;;;;8.00;2.20;;;4.80;65.90;;;;;;4995880;28;20474;-76
2021/05/06 11:36:09;;;;;;;1.95;1.45;;;4.80;65.00;;;;;;4995585;28;20034;-76
2021/05/06 11:38:35;;;;;;;17.52;2.13;;;4.90;64.80;;;;;;4995539;28;20626;-75
2021/05/06 11:41:03;;;;;;;25.35;2.17;;;4.80;65.20;;;;;;4995372;28;20041;-77
2021/05/06 11:43:29;;;;;;;10.48;2.00;;;4.80;65.40;;;;;;4995849;28;20026;-78
2021/05/06 11:46:09;;;;;;;2.40;1.40;;;4.70;65.00;;;;;;4991573;28;20519;-76
2021/05/06 11:48:39;;;;;;;17.57;2.20;;;4.70;64.90;;;;;;4995846;28;20087;-81
2021/05/06 11:51:06;;;;;;;32.28;2.58;;;4.60;65.00;;;;;;4998845;28;20084;-78
2021/05/06 11:53:35;;;;;;;3.05;1.50;;;4.70;65.80;;;;;;5005800;28;20045;-74
2021/05/06 11:56:13;;;;;;;1.77;1.42;;;6.00;99.90;;;;;;4997100;28;20486;-77
2021/05/06 11:58:42;;;;;;;36.25;2.58;;;6.60;66.30;;;;;;5005393;28;20114;-77
2021/05/06 12:01:09;;;;;;;5.23;2.10;;;6.10;63.40;;;;;;4995423;28;20030;-77
2021/05/06 12:03:40;;;;;;;3.58;1.67;;;5.90;63.20;;;;;;4978020;28;20056;-77
2021/05/06 12:06:07;;;;;;;9.20;2.05;;;5.80;63.70;;;;;;4995335;28;20030;-77
2021/05/06 12:08:44;;;;;;;99.25;4.78;;;5.50;62.80;;;;;;4995336;28;20466;-77
2021/05/06 12:11:10;;;;;;;2.53;1.58;;;5.50;64.40;;;;;;5005814;28;20034;-77
2021/05/06 12:13:37;;;;;;;23.05;2.38;;;5.50;63.60;;;;;;4998388;28;20038;-77
2021/05/06 12:16:15;;;;;;;3.42;1.50;;;5.50;63.90;;;;;;5004022;28;20108;-77
2021/05/06 12:18:41;;;;;;;6.35;1.88;;;5.60;64.10;;;;;;4998319;28;20033;-78
2021/05/06 12:21:08;;;;;;;2.70;1.45;;;5.60;63.60;;;;;;4995046;28;20026;-77
2021/05/06 12:23:35;;;;;;;1.65;1.48;;;6.20;70.40;;;;;;4990027;28;20027;-77
2021/05/06 12:26:02;;;;;;;56.60;4.03;;;6.20;63.50;;;;;;4995676;28;20018;-77
2021/05/06 12:28:37;;;;;;;11.70;2.00;;;5.80;62.90;;;;;;4994215;28;20030;-76
2021/05/06 12:31:03;;;;;;;10.18;1.88;;;5.60;61.60;;;;;;4971848;28;20030;-78
2021/05/06 12:33:33;;;;;;;17.42;2.15;;;5.50;62.60;;;;;;4994782;28;20034;-78
2021/05/06 12:35:59;;;;;;;5.60;1.83;;;5.40;62.50;;;;;;4994611;28;20041;-78
2021/05/06 12:38:27;;;;;;;26.25;2.90;;;5.30;63.50;;;;;;4994594;28;20029;-78
2021/05/06 12:40:53;;;;;;;2.63;1.88;;;5.30;63.50;;;;;;4994647;28;20050;-79
2021/05/06 12:43:34;;;;;;;4.13;1.58;;;5.20;63.20;;;;;;4994863;28;20026;-78
2021/05/06 12:46:00;;;;;;;15.15;2.38;;;5.20;62.60;;;;;;4994387;28;20026;-79
2021/05/06 12:48:42;;;;;;;3.05;1.58;;;5.20;63.40;;;;;;4994664;28;20109;-79
2021/05/06 12:51:11;;;;;;;7.22;1.83;;;5.20;61.20;;;;;;4993960;28;20041;-80
2021/05/06 12:53:37;;;;;;;7.68;2.15;;;5.20;62.60;;;;;;4991055;28;20147;-77
2021/05/06 12:56:04;;;;;;;1.67;1.42;;;5.20;61.40;;;;;;4993541;28;20553;-77
2021/05/06 12:58:35;;;;;;;11.73;2.00;;;5.10;61.10;;;;;;4985499;28;20046;-77
2021/05/06 13:01:02;;;;;;;;;;;5.10;61.90;;;;;;4986337;28;20182;-77
2021/05/06 13:03:35;;;;;;;7.28;2.20;;;5.10;60.80;;;;;;4992913;28;19912;-77
2021/05/06 13:06:06;;;;;;;6.93;1.55;;;5.10;61.60;;;;;;4993694;28;20021;-77
2021/05/06 13:08:36;;;;;;;149.20;6.18;;;5.10;62.40;;;;;;4993610;28;20018;-75
2021/05/06 13:11:04;;;;;;;10.73;1.77;;;5.10;61.10;;;;;;4989058;28;20031;-74
2021/05/06 13:13:42;;;;;;;4.90;1.50;;;5.00;61.60;;;;;;4989507;28;20025;-74
2021/05/06 13:16:09;;;;;;;5.97;1.98;;;5.00;62.60;;;;;;4989576;28;20022;-74
2021/05/06 13:18:36;;;;;;;10.18;2.30;;;5.10;63.00;;;;;;4988320;28;20023;-77
2021/05/06 13:21:03;;;;;;;9.57;2.08;;;5.10;62.80;;;;;;4991036;28;20102;-77
2021/05/06 13:23:40;;;;;;;4.93;1.83;;;5.10;62.60;;;;;;4993616;28;20069;-77
2021/05/06 13:26:06;;;;;;;3.83;1.60;;;5.10;63.00;;;;;;4988379;28;20481;-76
2021/05/06 13:28:32;;;;;;;5.25;1.80;;;5.10;62.40;;;;;;4989209;28;20026;-75
2021/05/06 13:31:08;;;;;;;5.53;2.20;;;5.20;63.30;;;;;;4987869;28;20034;-76
2021/05/06 13:33:34;;;;;;;11.30;1.90;;;5.20;64.20;;;;;;4993048;28;20494;-76
2021/05/06 13:36:06;;;;;;;2.10;1.83;;;5.20;63.50;;;;;;4992790;28;20046;-76
2021/05/06 13:38:57;;;;;;;14.63;2.20;;;5.20;64.40;;;;;;4992878;28;20022;-77
2021/05/06 13:41:28;;;;;;;4.32;2.50;;;5.10;65.70;;;;;;4990100;28;20482;-76
2021/05/06 13:43:56;;;;;;;2.55;1.85;;;5.10;66.70;;;;;;4992654;28;20030;-76
2021/05/06 13:46:23;;;;;;;2.20;2.00;;;5.10;66.90;;;;;;4992545;28;20018;-76
2021/05/06 13:48:50;;;;;;;10.07;2.60;;;5.10;67.00;;;;;;4975255;28;20018;-76
2021/05/06 13:51:21;;;;;;;5.85;2.90;;;4.90;68.80;;;;;;4992411;28;20508;-75
2021/05/06 13:53:50;;;;;;;8.90;3.10;;;4.90;70.70;;;;;;4992636;28;20081;-76
2021/05/06 13:56:16;;;;;;;12.00;2.92;;;4.70;71.30;;;;;;4992180;28;20034;-76
2021/05/06 13:58:42;;;;;;;2.97;2.35;;;4.60;72.30;;;;;;4985387;28;20042;-76
2021/05/06 14:01:10;;;;;;;7.22;2.40;;;4.70;73.00;;;;;;4992426;28;20409;-76
2021/05/06 14:03:36;;;;;;;4.63;2.22;;;4.70;73.00;;;;;;4992810;28;20018;-76
2021/05/06 14:06:03;;;;;;;3.20;2.60;;;4.70;71.20;;;;;;4992188;28;20023;-76
2021/05/06 14:08:30;;;;;;;3.47;1.83;;;4.60;70.90;;;;;;4992262;28;20018;-78
2021/05/06 14:10:56;;;;;;;11.23;2.55;;;4.70;71.30;;;;;;4987665;28;20034;-79
2021/05/06 14:13:23;;;;;;;4.78;2.03;;;4.60;71.30;;;;;;4991930;28;20027;-78
2021/05/06 14:15:49;;;;;;;3.67;1.90;;;4.50;72.10;;;;;;4992467;28;20065;-79
2021/05/06 14:18:15;;;;;;;7.57;2.28;;;4.50;73.20;;;;;;4992473;28;20105;-78
2021/05/06 14:20:42;;;;;;;9.13;2.17;;;4.40;74.10;;;;;;4991985;28;20114;-78
2021/05/06 14:23:09;;;;;;;2.58;2.10;;;4.40;74.40;;;;;;4991945;28;20030;-78
2021/05/06 14:25:36;;;;;;;14.43;3.05;;;4.50;75.30;;;;;;4990742;28;20524;-79
2021/05/06 14:28:04;;;;;;;3.13;2.17;;;4.50;76.10;;;;;;4989287;28;20022;-79
2021/05/06 14:30:29;;;;;;;4.40;2.42;;;4.50;76.70;;;;;;4971977;28;20437;-78
2021/05/06 14:32:56;;;;;;;5.20;2.42;;;4.50;78.10;;;;;;4992074;28;20022;-83
2021/05/06 14:35:22;;;;;;;2.80;2.28;;;4.50;78.70;;;;;;4974369;28;20562;-75
2021/05/06 14:37:47;;;;;;;3.90;2.30;;;4.50;79.10;;;;;;4990140;28;20038;-75
2021/05/06 14:40:14;;;;;;;4.43;2.40;;;4.60;79.30;;;;;;4986583;28;20097;-75
2021/05/06 14:42:39;;;;;;;3.75;2.28;;;4.50;79.90;;;;;;4991444;28;20502;-75
2021/05/06 14:45:08;;;;;;;2.72;2.10;;;4.50;80.40;;;;;;4992307;28;20093;-75
2021/05/06 14:47:39;;;;;;;4.55;2.40;;;4.50;81.00;;;;;;4991647;28;20022;-75
2021/05/06 14:50:10;;;;;;;4.70;2.00;;;4.60;81.30;;;;;;4990787;28;20018;-76
2021/05/06 14:52:36;;;;;;;2.85;2.47;;;4.60;81.10;;;;;;4987246;28;20105;-74
2021/05/06 14:55:04;;;;;;;5.50;2.40;;;4.60;80.80;;;;;;4991893;28;20025;-81
2021/05/06 14:57:29;;;;;;;5.20;2.33;;;4.70;88.40;;;;;;4988097;28;20034;-77
2021/05/06 14:59:55;;;;;;;10.30;3.25;;;4.80;79.90;;;;;;4991631;28;20043;-78
2021/05/06 15:02:21;;;;;;;7.78;2.40;;;4.70;79.90;;;;;;4991414;28;20030;-78
2021/05/06 15:04:46;;;;;;;2.25;2.05;;;4.60;79.50;;;;;;4991796;28;20102;-77
2021/05/06 15:07:12;;;;;;;2.90;2.35;;;4.60;77.70;;;;;;4991492;28;20053;-76
2021/05/06 15:09:38;;;;;;;2.72;2.20;;;4.50;76.60;;;;;;4991596;28;20391;-77
2021/05/06 15:12:06;;;;;;;2.92;2.53;;;4.60;77.50;;;;;;4991384;28;20033;-77
2021/05/06 15:14:31;;;;;;;3.30;2.47;;;4.60;76.90;;;;;;4991484;28;20100;-77
2021/05/06 15:16:57;;;;;;;2.80;2.60;;;4.60;77.20;;;;;;4983461;28;20054;-77
2021/05/06 15:19:23;;;;;;;3.53;2.90;;;4.60;77.30;;;;;;4988968;28;20022;-76
2021/05/06 15:21:49;;;;;;;2.92;2.63;;;4.60;77.00;;;;;;4991602;28;20370;-76
2021/05/06 15:24:14;;;;;;;2.80;2.50;;;4.60;76.20;;;;;;4991237;28;20092;-76
2021/05/06 15:26:40;;;;;;;2.50;2.30;;;4.60;75.00;;;;;;4991363;28;20018;-76
2021/05/06 15:29:07;;;;;;;3.25;2.67;;;4.50;74.50;;;;;;4983671;28;20053;-77
2021/05/06 15:31:35;;;;;;;3.05;2.75;;;4.50;74.80;;;;;;4991511;28;20102;-76
2021/05/06 15:34:01;;;;;;;4.15;2.60;;;4.50;74.20;;;;;;4991252;28;20109;-76
2021/05/06 15:36:29;;;;;;;3.13;2.83;;;4.50;73.20;;;;;;4991279;28;20117;-77
2021/05/06 15:38:55;;;;;;;5.10;3.03;;;4.60;73.40;;;;;;4991678;28;20026;-76
2021/05/06 15:41:20;;;;;;;4.28;2.83;;;4.60;72.50;;;;;;4991310;28;20048;-77
2021/05/06 15:43:46;;;;;;;2.60;2.08;;;4.60;72.40;;;;;;4991131;28;20402;-76
2021/05/06 15:46:12;;;;;;;3.00;2.70;;;4.50;72.70;;;;;;4991128;28;20034;-77
2021/05/06 15:48:38;;;;;;;5.47;3.83;;;4.50;73.10;;;;;;4991094;28;20486;-77
2021/05/06 15:51:04;;;;;;;2.88;2.67;;;4.60;73.30;;;;;;4985786;28;20034;-77
2021/05/06 15:53:31;;;;;;;3.38;2.83;;;4.60;72.40;;;;;;4986149;28;20050;-77
2021/05/06 15:55:58;;;;;;;2.85;2.58;;;4.70;72.30;;;;;;4983621;28;20031;-77
2021/05/06 15:58:24;;;;;;;3.35;3.05;;;4.70;72.30;;;;;;4980529;28;20242;-77
2021/05/06 16:00:55;;;;;;;3.88;2.60;;;4.70;71.90;;;;;;4968736;28;20042;-78
2021/05/06 16:03:21;;;;;;;2.53;2.33;;;4.70;71.60;;;;;;4986011;28;20514;-76
2021/05/06 16:05:54;;;;;;;3.58;2.85;;;4.70;71.30;;;;;;4988215;28;20429;-77
2021/05/06 16:08:24;;;;;;;3.83;3.10;;;4.70;70.70;;;;;;4995146;28;20030;-81
2021/05/06 16:10:50;;;;;;;3.22;2.92;;;4.70;70.40;;;;;;4995503;28;20077;-76
2021/05/06 16:13:20;;;;;;;3.80;2.80;;;4.80;72.70;;;;;;4995199;28;20072;-80
2021/05/06 16:15:48;;;;;;;24.07;3.67;;;5.00;70.80;;;;;;4995465;28;20021;-80
2021/05/06 16:18:15;;;;;;;2.85;2.65;;;5.00;69.70;;;;;;4995235;28;20080;-80
2021/05/06 16:20:41;;;;;;;3.15;2.72;;;5.00;69.60;;;;;;5009224;28;20470;-80
2021/05/06 16:23:09;;;;;;;2.65;2.45;;;5.00;68.00;;;;;;4995099;28;20112;-84
2021/05/06 16:25:36;;;;;;;2.70;2.50;;;4.90;67.50;;;;;;4994996;28;20031;-80
2021/05/06 16:28:03;;;;;;;5.50;2.55;;;4.90;67.50;;;;;;4994949;28;20022;-79
2021/05/06 16:30:29;;;;;;;2.83;2.53;;;4.80;66.70;;;;;;4994661;28;20038;-80
2021/05/06 16:32:57;;;;;;;2.90;2.47;;;4.80;66.80;;;;;;4994834;28;20026;-80
2021/05/06 16:35:27;;;;;;;4.15;3.22;;;4.80;66.90;;;;;;4994638;28;20470;-80
2021/05/06 16:40:33;;;;;;;2.70;2.50;;;4.70;66.50;;;;;;4994594;28;20027;-78
2021/05/06 16:45:36;;;;;;;3.08;2.78;;;5.10;69.30;;;;;;5008714;28;20041;-75
2021/05/06 16:48:04;;;;;;;3.00;2.80;;;5.00;69.00;;;;;;4996393;28;20473;-75
2021/05/06 16:50:29;;;;;;;4.90;2.25;;;5.00;68.90;;;;;;4993182;28;20376;-74
2021/05/06 16:52:55;;;;;;;3.15;2.85;;;4.90;69.20;;;;;;4990146;28;20028;-73
2021/05/06 16:55:21;;;;;;;3.20;2.70;;;4.90;69.80;;;;;;4987345;28;20030;-74
2021/05/06 16:57:47;;;;;;;2.70;2.50;;;4.90;69.50;;;;;;4988789;28;20050;-75
2021/05/06 17:00:13;;;;;;;3.05;2.55;;;4.90;69.80;;;;;;4991013;28;20046;-75
2021/05/06 17:02:39;;;;;;;3.20;2.60;;;4.90;70.10;;;;;;4990915;28;20034;-75
2021/05/06 17:05:12;;;;;;;2.72;2.50;;;4.90;69.50;;;;;;4993602;28;20022;-80
2021/05/06 17:07:43;;;;;;;3.42;2.80;;;4.90;69.70;;;;;;4993455;28;20076;-74
2021/05/06 17:10:13;;;;;;;2.83;2.53;;;4.90;70.00;;;;;;4993516;28;20032;-75
2021/05/06 17:12:39;;;;;;;3.65;2.60;;;4.90;70.90;;;;;;4990943;28;20027;-80
2021/05/06 17:15:05;;;;;;;5.13;3.03;;;4.90;70.20;;;;;;4989321;28;20034;-83
2021/05/06 17:17:32;;;;;;;3.50;2.83;;;4.80;69.60;;;;;;4981846;28;20030;-84
2021/05/06 17:19:58;;;;;;;3.63;2.63;;;4.70;69.80;;;;;;4984148;28;20022;-81
2021/05/06 17:22:23;;;;;;;2.72;2.53;;;4.70;69.80;;;;;;4983689;28;20105;-82
2021/05/06 17:24:49;;;;;;;2.70;2.50;;;4.70;69.50;;;;;;4993577;28;20408;-81
2021/05/06 17:27:15;;;;;;;2.55;2.30;;;4.70;69.60;;;;;;4990400;28;20037;-82
2021/05/06 17:29:40;;;;;;;2.80;2.60;;;4.70;69.90;;;;;;4993589;28;20113;-80
2021/05/06 17:32:06;;;;;;;3.20;2.90;;;4.70;69.50;;;;;;4990604;28;20018;-81
2021/05/06 17:34:32;;;;;;;2.60;2.40;;;4.70;69.60;;;;;;4984462;28;20022;-81
2021/05/06 17:36:58;;;;;;;2.95;2.75;;;4.80;69.30;;;;;;4993109;28;20077;-79
2021/05/06 17:39:24;;;;;;;4.18;2.88;;;4.70;68.50;;;;;;4993318;28;20545;-79
2021/05/06 17:41:50;;;;;;;2.88;2.58;;;4.70;68.80;;;;;;4993268;28;20026;-80
2021/05/06 17:44:16;;;;;;;3.58;2.83;;;4.60;68.80;;;;;;4992708;28;20351;-80
2021/05/06 17:46:42;;;;;;;2.88;2.42;;;4.60;69.40;;;;;;4992708;28;20050;-80
2021/05/06 17:49:07;;;;;;;3.05;2.70;;;4.60;69.40;;;;;;4992397;28;20034;-83
2021/05/06 17:51:33;;;;;;;2.63;2.42;;;4.60;69.20;;;;;;4992361;28;20038;-82
2021/05/06 17:53:59;;;;;;;2.50;2.30;;;4.60;69.10;;;;;;4992744;28;20022;-81
2021/05/06 17:56:25;;;;;;;3.58;2.65;;;4.60;69.30;;;;;;4992289;28;20034;-80
2021/05/06 17:58:54;;;;;;;2.75;2.55;;;4.70;69.50;;;;;;4991160;28;20039;-81
2021/05/06 18:01:22;;;;;;;2.50;2.30;;;4.60;69.20;;;;;;4985111;28;20037;-80
2021/05/06 18:03:48;;;;;;;2.47;2.28;;;4.60;69.20;;;;;;4992714;28;20026;-83
2021/05/06 18:06:13;;;;;;;5.03;3.22;;;4.50;69.20;;;;;;4992192;28;20031;-79
2021/05/06 18:08:49;;;;;;;2.92;2.17;;;4.50;69.20;;;;;;4992509;28;20023;-81
2021/05/06 18:13:53;;;;;;;2.67;2.10;;;4.40;69.20;;;;;;4985766;28;20102;-82
2021/05/06 18:16:20;;;;;;;2.25;2.05;;;4.70;79.70;;;;;;4986559;28;20126;-81
2021/05/06 18:18:46;;;;;;;3.53;2.33;;;5.00;82.30;;;;;;4992022;28;20605;-80
2021/05/06 18:21:12;;;;;;;2.45;2.20;;;5.20;73.00;;;;;;4974753;28;20065;-77
2021/05/06 18:23:38;;;;;;;3.38;2.38;;;4.90;69.70;;;;;;4992370;28;20029;-80
2021/05/06 18:26:04;;;;;;;2.65;2.25;;;4.80;69.40;;;;;;4989425;28;20099;-79
2021/05/06 18:28:31;;;;;;;2.22;2.03;;;4.60;69.60;;;;;;4988253;28;20026;-80
2021/05/06 18:30:57;;;;;;;3.22;2.10;;;4.60;70.00;;;;;;4984766;28;20043;-76
2021/05/06 18:33:22;;;;;;;3.33;2.40;;;4.50;70.00;;;;;;4974404;28;20023;-76
2021/05/06 18:35:48;;;;;;;2.60;2.30;;;4.50;69.90;;;;;;4990987;28;20042;-75
2021/05/06 18:38:15;;;;;;;2.97;2.30;;;4.50;70.00;;;;;;4985333;28;20081;-75
2021/05/06 18:40:40;;;;;;;2.95;2.47;;;4.50;69.90;;;;;;4989111;28;20018;-75
2021/05/06 18:43:06;;;;;;;2.78;2.33;;;4.50;70.10;;;;;;4991869;28;20025;-75
2021/05/06 18:45:32;;;;;;;4.78;2.42;;;4.50;70.10;;;;;;4991921;28;20022;-76
2021/05/06 18:47:59;;;;;;;2.55;2.28;;;4.50;70.00;;;;;;4983563;28;20026;-75
2021/05/06 18:50:26;;;;;;;3.35;2.33;;;4.50;70.30;;;;;;4991559;28;20034;-76